sensor_id;sensor_type;location;lat;lon;timestamp;temperature;humidity
4207;DHT22;2117;47.972;7.830;2023-05-14T03:01:58;10.00;99.90
4207;DHT22;2117;47.972;7.830;2023-05-14T03:04:24;10.00;99.90
4207;DHT22;2117;47.972;7.830;2023-05-14T03:06:49;10.00;99.90
4207;DHT22;2117;47.972;7.830;2023-05-14T03:09:15;10.10;99.90
4207;DHT22;2117;47.972;7.830;2023-05-14T03:11:41;10.20;99.90
4207;DHT22;2117;47.972;7.830;2023-05-14T03:14:06;10.20;99.90
4207;DHT22;2117;47.972;7.830;2023-05-14T03:16:32;10.20;99.90
4207;DHT22;2117;47.972;7.830;2023-05-14T03:18:58;10.20;99.90
4207;DHT22;2117;47.972;7.830;2023-05-14T03:21:23;10.20;99.90
4207;DHT22;2117;47.972;7.830;2023-05-14T03:23:50;10.30;99.90
4207;DHT22;2117;47.972;7.830;2023-05-14T03:26:16;10.40;99.90
4207;DHT22;2117;47.972;7.830;2023-05-14T03:28:42;10.40;99.90
4207;DHT22;2117;47.972;7.830;2023-05-14T03:31:08;10.40;99.90
4207;DHT22;2117;47.972;7.830;2023-05-14T03:33:34;10.30;99.90
4207;DHT22;2117;47.972;7.830;2023-05-14T03:36:00;10.30;99.90
4207;DHT22;2117;47.972;7.830;2023-05-14T03:38:25;10.30;99.90
4207;DHT22;2117;47.972;7.830;2023-05-14T03:40:51;10.30;99.90
4207;DHT22;2117;47.972;7.830;2023-05-14T03:43:16;10.30;99.90
4207;DHT22;2117;47.972;7.830;2023-05-14T03:45:43;10.30;99.90
4207;DHT22;2117;47.972;7.830;2023-05-14T03:48:08;10.30;99.90
4207;DHT22;2117;47.972;7.830;2023-05-14T03:50:34;10.30;99.90
4207;DHT22;2117;47.972;7.830;2023-05-14T03:53:00;10.30;99.90
4207;DHT22;2117;47.972;7.830;2023-05-14T03:55:25;10.40;99.90
4207;DHT22;2117;47.972;7.830;2023-05-14T03:57:51;10.40;99.90
4207;DHT22;2117;47.972;7.830;2023-05-14T04:00:16;10.40;99.90
4207;DHT22;2117;47.972;7.830;2023-05-14T04:02:42;10.40;99.90
4207;DHT22;2117;47.972;7.830;2023-05-14T04:05:08;10.50;99.90
4207;DHT22;2117;47.972;7.830;2023-05-14T04:07:33;10.50;99.90
4207;DHT22;2117;47.972;7.830;2023-05-14T04:10:00;10.50;99.90
4207;DHT22;2117;47.972;7.830;2023-05-14T04:12:26;10.60;99.90
4207;DHT22;2117;47.972;7.830;2023-05-14T04:14:52;10.60;99.90
4207;DHT22;2117;47.972;7.830;2023-05-14T04:17:17;10.60;99.90
4207;DHT22;2117;47.972;7.830;2023-05-14T04:19:43;10.70;99.90
4207;DHT22;2117;47.972;7.830;2023-05-14T04:22:08;10.70;99.90
4207;DHT22;2117;47.972;7.830;2023-05-14T04:24:34;10.70;99.90
4207;DHT22;2117;47.972;7.830;2023-05-14T04:26:59;10.70;99.90
4207;DHT22;2117;47.972;7.830;2023-05-14T04:29:25;10.70;99.90
4207;DHT22;2117;47.972;7.830;2023-05-14T04:31:51;10.70;99.90
4207;DHT22;2117;47.972;7.830;2023-05-14T04:34:17;10.70;99.90
4207;DHT22;2117;47.972;7.830;2023-05-14T04:36:43;10.70;99.90
4207;DHT22;2117;47.972;7.830;2023-05-14T04:39:08;10.80;99.90
4207;DHT22;2117;47.972;7.830;2023-05-14T04:41:34;10.70;99.90
4207;DHT22;2117;47.972;7.830;2023-05-14T04:44:02;10.80;99.90
4207;DHT22;2117;47.972;7.830;2023-05-14T04:46:28;10.90;99.90
4207;DHT22;2117;47.972;7.830;2023-05-14T04:48:53;10.90;99.90
4207;DHT22;2117;47.972;7.830;2023-05-14T04:51:19;10.90;99.90
4207;DHT22;2117;47.972;7.830;2023-05-14T04:53:44;10.90;99.90
4207;DHT22;2117;47.972;7.830;2023-05-14T04:56:10;10.90;99.90
4207;DHT22;2117;47.972;7.830;2023-05-14T04:58:36;10.90;99.90
4207;DHT22;2117;47.972;7.830;2023-05-14T05:01:03;11.00;99.90
4207;DHT22;2117;47.972;7.830;2023-05-14T05:03:29;11.00;99.90
4207;DHT22;2117;47.972;7.830;2023-05-14T05:05:55;11.00;99.90
4207;DHT22;2117;47.972;7.830;2023-05-14T05:08:21;11.10;99.90
4207;DHT22;2117;47.972;7.830;2023-05-14T05:10:46;11.10;99.90
4207;DHT22;2117;47.972;7.830;2023-05-14T05:13:12;11.10;99.90
4207;DHT22;2117;47.972;7.830;2023-05-14T05:15:37;11.10;99.90
4207;DHT22;2117;47.972;7.830;2023-05-14T05:18:03;11.20;99.90
4207;DHT22;2117;47.972;7.830;2023-05-14T05:20:28;11.20;99.90
4207;DHT22;2117;47.972;7.830;2023-05-14T05:22:54;11.20;99.90
4207;DHT22;2117;47.972;7.830;2023-05-14T05:25:20;11.30;99.90
4207;DHT22;2117;47.972;7.830;2023-05-14T05:27:45;11.30;99.90
4207;DHT22;2117;47.972;7.830;2023-05-14T05:30:11;11.30;99.90
4207;DHT22;2117;47.972;7.830;2023-05-14T05:32:37;11.40;99.90
4207;DHT22;2117;47.972;7.830;2023-05-14T05:35:02;11.40;99.90
4207;DHT22;2117;47.972;7.830;2023-05-14T05:37:29;11.40;99.90
4207;DHT22;2117;47.972;7.830;2023-05-14T05:39:55;11.50;99.90
4207;DHT22;2117;47.972;7.830;2023-05-14T05:42:20;11.50;99.90
4207;DHT22;2117;47.972;7.830;2023-05-14T05:44:46;11.50;99.90
4207;DHT22;2117;47.972;7.830;2023-05-14T05:47:12;11.60;99.90
4207;DHT22;2117;47.972;7.830;2023-05-14T05:49:38;11.60;99.90
4207;DHT22;2117;47.972;7.830;2023-05-14T05:52:04;11.70;99.90
4207;DHT22;2117;47.972;7.830;2023-05-14T05:54:30;11.80;99.90
4207;DHT22;2117;47.972;7.830;2023-05-14T05:56:58;11.80;99.90
4207;DHT22;2117;47.972;7.830;2023-05-14T05:59:24;11.80;99.90
4207;DHT22;2117;47.972;7.830;2023-05-14T06:01:49;11.80;99.90
4207;DHT22;2117;47.972;7.830;2023-05-14T06:04:15;11.90;99.90
4207;DHT22;2117;47.972;7.830;2023-05-14T06:06:41;12.00;99.90
4207;DHT22;2117;47.972;7.830;2023-05-14T06:09:06;12.00;99.90
4207;DHT22;2117;47.972;7.830;2023-05-14T06:11:33;12.00;99.90
4207;DHT22;2117;47.972;7.830;2023-05-14T06:13:59;12.10;99.90
4207;DHT22;2117;47.972;7.830;2023-05-14T06:16:24;12.10;99.90
4207;DHT22;2117;47.972;7.830;2023-05-14T06:18:50;12.10;99.90
4207;DHT22;2117;47.972;7.830;2023-05-14T06:21:20;12.20;99.90
4207;DHT22;2117;47.972;7.830;2023-05-14T06:23:45;12.30;99.90
4207;DHT22;2117;47.972;7.830;2023-05-14T06:26:11;12.40;99.90
4207;DHT22;2117;47.972;7.830;2023-05-14T06:28:36;12.40;99.90
4207;DHT22;2117;47.972;7.830;2023-05-14T06:31:02;12.50;99.90
4207;DHT22;2117;47.972;7.830;2023-05-14T06:33:28;12.60;99.90
4207;DHT22;2117;47.972;7.830;2023-05-14T06:36:02;12.70;99.90
4207;DHT22;2117;47.972;7.830;2023-05-14T06:38:28;12.70;99.90
4207;DHT22;2117;47.972;7.830;2023-05-14T06:40:54;12.80;99.90
4207;DHT22;2117;47.972;7.830;2023-05-14T06:43:19;12.90;99.90
4207;DHT22;2117;47.972;7.830;2023-05-14T06:45:51;13.00;99.90
4207;DHT22;2117;47.972;7.830;2023-05-14T06:48:18;13.00;99.90
4207;DHT22;2117;47.972;7.830;2023-05-14T06:50:45;13.00;99.90
4207;DHT22;2117;47.972;7.830;2023-05-14T06:53:11;13.10;99.90
4207;DHT22;2117;47.972;7.830;2023-05-14T06:55:37;13.10;99.90
4207;DHT22;2117;47.972;7.830;2023-05-14T06:58:04;13.20;99.90
4207;DHT22;2117;47.972;7.830;2023-05-14T07:00:30;13.10;99.90
4207;DHT22;2117;47.972;7.830;2023-05-14T07:02:56;13.00;99.90
4207;DHT22;2117;47.972;7.830;2023-05-14T07:05:21;13.10;99.90
4207;DHT22;2117;47.972;7.830;2023-05-14T07:07:47;13.20;99.90
4207;DHT22;2117;47.972;7.830;2023-05-14T07:10:12;13.20;99.90
4207;DHT22;2117;47.972;7.830;2023-05-14T07:12:38;13.30;99.90
4207;DHT22;2117;47.972;7.830;2023-05-14T07:15:04;13.20;99.90
4207;DHT22;2117;47.972;7.830;2023-05-14T07:17:29;13.40;99.90
4207;DHT22;2117;47.972;7.830;2023-05-14T07:19:55;13.50;99.90
4207;DHT22;2117;47.972;7.830;2023-05-14T07:22:21;13.60;99.90
4207;DHT22;2117;47.972;7.830;2023-05-14T07:24:46;13.70;99.90
4207;DHT22;2117;47.972;7.830;2023-05-14T07:27:13;13.90;99.90
4207;DHT22;2117;47.972;7.830;2023-05-14T07:29:39;14.00;99.90
4207;DHT22;2117;47.972;7.830;2023-05-14T07:32:04;14.00;99.90
4207;DHT22;2117;47.972;7.830;2023-05-14T07:34:30;14.10;99.90
4207;DHT22;2117;47.972;7.830;2023-05-14T07:36:55;14.20;99.90
4207;DHT22;2117;47.972;7.830;2023-05-14T07:39:21;14.30;99.90
4207;DHT22;2117;47.972;7.830;2023-05-14T07:41:47;14.30;99.90
4207;DHT22;2117;47.972;7.830;2023-05-14T07:44:12;14.40;99.90
4207;DHT22;2117;47.972;7.830;2023-05-14T07:46:38;14.60;99.90
4207;DHT22;2117;47.972;7.830;2023-05-14T07:49:03;14.70;99.90
4207;DHT22;2117;47.972;7.830;2023-05-14T07:51:29;14.70;99.90
4207;DHT22;2117;47.972;7.830;2023-05-14T07:53:56;14.80;99.90
4207;DHT22;2117;47.972;7.830;2023-05-14T07:56:22;15.00;99.90
4207;DHT22;2117;47.972;7.830;2023-05-14T07:58:49;15.00;99.90
4207;DHT22;2117;47.972;7.830;2023-05-14T08:01:14;14.90;99.90
4207;DHT22;2117;47.972;7.830;2023-05-14T08:03:40;15.00;99.90
4207;DHT22;2117;47.972;7.830;2023-05-14T08:06:06;15.20;99.90
4207;DHT22;2117;47.972;7.830;2023-05-14T08:08:31;15.20;99.90
4207;DHT22;2117;47.972;7.830;2023-05-14T08:10:57;15.40;99.90
4207;DHT22;2117;47.972;7.830;2023-05-14T08:13:22;15.50;99.90
4207;DHT22;2117;47.972;7.830;2023-05-14T08:15:48;15.60;99.90
4207;DHT22;2117;47.972;7.830;2023-05-14T08:18:13;15.50;99.90
4207;DHT22;2117;47.972;7.830;2023-05-14T08:20:39;15.60;99.90
4207;DHT22;2117;47.972;7.830;2023-05-14T08:23:04;15.60;99.90
4207;DHT22;2117;47.972;7.830;2023-05-14T08:25:32;15.60;99.90
4207;DHT22;2117;47.972;7.830;2023-05-14T08:27:57;15.60;99.90
4207;DHT22;2117;47.972;7.830;2023-05-14T08:30:24;15.70;99.90
4207;DHT22;2117;47.972;7.830;2023-05-14T08:32:50;15.70;99.90
4207;DHT22;2117;47.972;7.830;2023-05-14T08:35:16;15.80;99.90
4207;DHT22;2117;47.972;7.830;2023-05-14T08:37:42;15.80;99.90
4207;DHT22;2117;47.972;7.830;2023-05-14T08:40:08;15.80;99.90
4207;DHT22;2117;47.972;7.830;2023-05-14T08:42:34;16.00;99.90
4207;DHT22;2117;47.972;7.830;2023-05-14T08:45:04;16.20;99.90
4207;DHT22;2117;47.972;7.830;2023-05-14T08:47:33;16.30;99.90
4207;DHT22;2117;47.972;7.830;2023-05-14T08:50:03;16.40;99.90
4207;DHT22;2117;47.972;7.830;2023-05-14T08:52:30;16.60;99.90
4207;DHT22;2117;47.972;7.830;2023-05-14T08:54:58;16.70;99.90
4207;DHT22;2117;47.972;7.830;2023-05-14T08:57:25;16.80;99.90
4207;DHT22;2117;47.972;7.830;2023-05-14T08:59:52;16.80;99.90
4207;DHT22;2117;47.972;7.830;2023-05-14T09:02:22;16.70;99.90
4207;DHT22;2117;47.972;7.830;2023-05-14T09:04:51;16.90;99.90
4207;DHT22;2117;47.972;7.830;2023-05-14T09:07:18;17.00;99.90
4207;DHT22;2117;47.972;7.830;2023-05-14T09:09:44;17.10;99.90
4207;DHT22;2117;47.972;7.830;2023-05-14T09:12:10;17.10;99.90
4207;DHT22;2117;47.972;7.830;2023-05-14T09:14:35;16.80;99.90
4207;DHT22;2117;47.972;7.830;2023-05-14T09:17:01;17.10;99.90
4207;DHT22;2117;47.972;7.830;2023-05-14T09:19:27;17.20;99.90
4207;DHT22;2117;47.972;7.830;2023-05-14T09:21:56;17.40;99.90
4207;DHT22;2117;47.972;7.830;2023-05-14T09:24:24;17.50;99.90
4207;DHT22;2117;47.972;7.830;2023-05-14T09:26:52;17.60;99.90
4207;DHT22;2117;47.972;7.830;2023-05-14T09:29:18;17.70;99.90
4207;DHT22;2117;47.972;7.830;2023-05-14T09:31:44;17.50;99.90
4207;DHT22;2117;47.972;7.830;2023-05-14T09:34:10;17.30;99.90
4207;DHT22;2117;47.972;7.830;2023-05-14T09:36:35;17.40;99.90
4207;DHT22;2117;47.972;7.830;2023-05-14T09:39:04;17.40;99.90
4207;DHT22;2117;47.972;7.830;2023-05-14T09:41:29;17.50;99.90
4207;DHT22;2117;47.972;7.830;2023-05-14T09:43:56;17.50;99.90
4207;DHT22;2117;47.972;7.830;2023-05-14T09:46:22;17.60;99.90
4207;DHT22;2117;47.972;7.830;2023-05-14T09:48:48;17.30;99.90
4207;DHT22;2117;47.972;7.830;2023-05-14T09:51:15;17.30;99.90
4207;DHT22;2117;47.972;7.830;2023-05-14T09:53:43;17.50;99.90
4207;DHT22;2117;47.972;7.830;2023-05-14T09:56:09;17.60;99.90
4207;DHT22;2117;47.972;7.830;2023-05-14T09:58:34;17.80;99.90
4207;DHT22;2117;47.972;7.830;2023-05-14T10:01:00;17.60;99.90
4207;DHT22;2117;47.972;7.830;2023-05-14T10:03:28;17.60;99.90
4207;DHT22;2117;47.972;7.830;2023-05-14T10:05:57;17.70;99.90
4207;DHT22;2117;47.972;7.830;2023-05-14T10:08:44;17.70;99.90
4207;DHT22;2117;47.972;7.830;2023-05-14T10:11:13;17.70;99.90
4207;DHT22;2117;47.972;7.830;2023-05-14T10:13:42;17.70;99.90
4207;DHT22;2117;47.972;7.830;2023-05-14T10:16:18;17.80;99.90
4207;DHT22;2117;47.972;7.830;2023-05-14T10:18:46;18.10;99.90
4207;DHT22;2117;47.972;7.830;2023-05-14T10:21:19;18.10;99.90
4207;DHT22;2117;47.972;7.830;2023-05-14T10:23:47;18.30;99.90
4207;DHT22;2117;47.972;7.830;2023-05-14T10:26:13;18.30;99.90
4207;DHT22;2117;47.972;7.830;2023-05-14T10:28:39;18.40;99.90
4207;DHT22;2117;47.972;7.830;2023-05-14T10:31:04;18.60;99.90
4207;DHT22;2117;47.972;7.830;2023-05-14T10:33:45;18.70;99.90
4207;DHT22;2117;47.972;7.830;2023-05-14T10:36:12;18.90;99.90
4207;DHT22;2117;47.972;7.830;2023-05-14T10:38:37;19.00;99.90
4207;DHT22;2117;47.972;7.830;2023-05-14T10:41:05;19.00;99.90
4207;DHT22;2117;47.972;7.830;2023-05-14T10:43:36;19.20;99.90
4207;DHT22;2117;47.972;7.830;2023-05-14T10:46:01;19.30;99.90
4207;DHT22;2117;47.972;7.830;2023-05-14T10:48:28;19.30;99.90
4207;DHT22;2117;47.972;7.830;2023-05-14T10:50:54;19.30;99.90
4207;DHT22;2117;47.972;7.830;2023-05-14T10:53:32;19.20;99.90
4207;DHT22;2117;47.972;7.830;2023-05-14T10:56:05;19.30;99.90
4207;DHT22;2117;47.972;7.830;2023-05-14T10:58:31;19.10;99.90
4207;DHT22;2117;47.972;7.830;2023-05-14T11:00:59;19.10;99.90
4207;DHT22;2117;47.972;7.830;2023-05-14T11:03:29;19.20;99.90
4207;DHT22;2117;47.972;7.830;2023-05-14T11:06:02;19.40;99.90
4207;DHT22;2117;47.972;7.830;2023-05-14T11:08:28;19.50;99.90
4207;DHT22;2117;47.972;7.830;2023-05-14T11:10:54;19.60;99.90
4207;DHT22;2117;47.972;7.830;2023-05-14T11:13:20;19.60;99.90
4207;DHT22;2117;47.972;7.830;2023-05-14T11:15:46;19.70;99.90
4207;DHT22;2117;47.972;7.830;2023-05-14T11:18:12;19.70;99.90
4207;DHT22;2117;47.972;7.830;2023-05-14T11:20:38;19.80;99.90
4207;DHT22;2117;47.972;7.830;2023-05-14T11:23:04;19.80;99.90
4207;DHT22;2117;47.972;7.830;2023-05-14T11:25:30;19.70;99.90
4207;DHT22;2117;47.972;7.830;2023-05-14T11:27:55;19.80;99.90
4207;DHT22;2117;47.972;7.830;2023-05-14T11:30:23;19.70;99.90
4207;DHT22;2117;47.972;7.830;2023-05-14T11:32:49;19.90;99.90
4207;DHT22;2117;47.972;7.830;2023-05-14T11:35:16;20.00;99.90
4207;DHT22;2117;47.972;7.830;2023-05-14T11:37:47;20.50;99.90
4207;DHT22;2117;47.972;7.830;2023-05-14T11:40:15;21.00;99.90
4207;DHT22;2117;47.972;7.830;2023-05-14T11:42:41;21.30;99.90
4207;DHT22;2117;47.972;7.830;2023-05-14T11:45:09;21.60;99.90
4207;DHT22;2117;47.972;7.830;2023-05-14T11:47:36;21.70;99.90
4207;DHT22;2117;47.972;7.830;2023-05-14T11:50:02;21.60;99.90
4207;DHT22;2117;47.972;7.830;2023-05-14T11:52:28;21.30;99.90
4207;DHT22;2117;47.972;7.830;2023-05-14T11:54:53;21.00;99.90
4207;DHT22;2117;47.972;7.830;2023-05-14T11:57:20;20.60;99.90
4207;DHT22;2117;47.972;7.830;2023-05-14T11:59:48;20.10;99.90
4207;DHT22;2117;47.972;7.830;2023-05-14T12:02:16;19.60;99.90
4207;DHT22;2117;47.972;7.830;2023-05-14T12:04:43;19.20;99.90
4207;DHT22;2117;47.972;7.830;2023-05-14T12:07:11;18.80;99.90
4207;DHT22;2117;47.972;7.830;2023-05-14T12:09:39;18.80;99.90
4207;DHT22;2117;47.972;7.830;2023-05-14T12:12:11;18.70;99.90
4207;DHT22;2117;47.972;7.830;2023-05-14T12:14:39;18.50;99.90
4207;DHT22;2117;47.972;7.830;2023-05-14T12:17:14;18.30;99.90
4207;DHT22;2117;47.972;7.830;2023-05-14T12:19:41;18.30;99.90
4207;DHT22;2117;47.972;7.830;2023-05-14T12:22:08;18.30;99.90
4207;DHT22;2117;47.972;7.830;2023-05-14T12:24:33;18.20;99.90
4207;DHT22;2117;47.972;7.830;2023-05-14T12:27:01;18.40;99.90
4207;DHT22;2117;47.972;7.830;2023-05-14T12:29:27;18.40;99.90
4207;DHT22;2117;47.972;7.830;2023-05-14T12:31:52;18.70;99.90
4207;DHT22;2117;47.972;7.830;2023-05-14T12:34:18;18.70;99.90
4207;DHT22;2117;47.972;7.830;2023-05-14T12:36:43;18.80;99.90
4207;DHT22;2117;47.972;7.830;2023-05-14T12:39:09;18.80;99.90
4207;DHT22;2117;47.972;7.830;2023-05-14T12:41:36;18.80;99.90
4207;DHT22;2117;47.972;7.830;2023-05-14T12:44:03;18.80;99.90
4207;DHT22;2117;47.972;7.830;2023-05-14T12:46:29;18.80;99.90
4207;DHT22;2117;47.972;7.830;2023-05-14T12:48:55;18.80;99.90
4207;DHT22;2117;47.972;7.830;2023-05-14T12:51:21;19.00;99.90
4207;DHT22;2117;47.972;7.830;2023-05-14T12:53:47;19.30;99.90
4207;DHT22;2117;47.972;7.830;2023-05-14T12:56:13;19.60;99.90
4207;DHT22;2117;47.972;7.830;2023-05-14T12:58:39;19.60;99.90
4207;DHT22;2117;47.972;7.830;2023-05-14T13:01:05;19.40;99.90
4207;DHT22;2117;47.972;7.830;2023-05-14T13:03:31;19.20;99.90
4207;DHT22;2117;47.972;7.830;2023-05-14T13:05:56;19.00;99.90
4207;DHT22;2117;47.972;7.830;2023-05-14T13:08:22;18.80;99.90
4207;DHT22;2117;47.972;7.830;2023-05-14T13:10:55;18.60;99.90
4207;DHT22;2117;47.972;7.830;2023-05-14T13:13:21;18.30;99.90
4207;DHT22;2117;47.972;7.830;2023-05-14T13:15:47;18.00;99.90
4207;DHT22;2117;47.972;7.830;2023-05-14T13:18:13;17.90;99.90
4207;DHT22;2117;47.972;7.830;2023-05-14T13:20:39;17.70;99.90
4207;DHT22;2117;47.972;7.830;2023-05-14T13:23:04;17.40;99.90
4207;DHT22;2117;47.972;7.830;2023-05-14T13:25:30;17.20;99.90
4207;DHT22;2117;47.972;7.830;2023-05-14T13:27:55;17.00;99.90
4207;DHT22;2117;47.972;7.830;2023-05-14T13:30:21;16.70;99.90
4207;DHT22;2117;47.972;7.830;2023-05-14T13:32:47;16.60;99.90
4207;DHT22;2117;47.972;7.830;2023-05-14T13:35:12;16.40;99.90
4207;DHT22;2117;47.972;7.830;2023-05-14T13:37:38;16.30;99.90
4207;DHT22;2117;47.972;7.830;2023-05-14T13:40:04;16.20;99.90
4207;DHT22;2117;47.972;7.830;2023-05-14T13:42:33;16.10;99.90
4207;DHT22;2117;47.972;7.830;2023-05-14T13:44:59;16.00;99.90
4207;DHT22;2117;47.972;7.830;2023-05-14T13:47:25;16.00;99.90
4207;DHT22;2117;47.972;7.830;2023-05-14T13:49:54;16.00;99.90
4207;DHT22;2117;47.972;7.830;2023-05-14T13:52:21;16.00;99.90
4207;DHT22;2117;47.972;7.830;2023-05-14T13:54:46;16.10;99.90
4207;DHT22;2117;47.972;7.830;2023-05-14T13:57:12;17.00;99.90
4207;DHT22;2117;47.972;7.830;2023-05-14T13:59:38;17.10;99.90
4207;DHT22;2117;47.972;7.830;2023-05-14T14:02:04;17.90;99.90
4207;DHT22;2117;47.972;7.830;2023-05-14T14:04:29;18.70;99.90
4207;DHT22;2117;47.972;7.830;2023-05-14T14:06:55;19.20;99.90
4207;DHT22;2117;47.972;7.830;2023-05-14T14:09:21;19.80;99.90
4207;DHT22;2117;47.972;7.830;2023-05-14T14:11:47;20.20;99.90
4207;DHT22;2117;47.972;7.830;2023-05-14T14:14:13;20.50;99.90
4207;DHT22;2117;47.972;7.830;2023-05-14T14:16:38;20.50;99.90
4207;DHT22;2117;47.972;7.830;2023-05-14T14:19:04;20.50;99.90
4207;DHT22;2117;47.972;7.830;2023-05-14T14:21:30;20.40;99.90
4207;DHT22;2117;47.972;7.830;2023-05-14T14:23:57;20.40;99.90
4207;DHT22;2117;47.972;7.830;2023-05-14T14:26:22;20.50;99.90
4207;DHT22;2117;47.972;7.830;2023-05-14T14:28:48;20.70;99.90
4207;DHT22;2117;47.972;7.830;2023-05-14T14:31:14;20.80;99.90
4207;DHT22;2117;47.972;7.830;2023-05-14T14:33:40;21.20;99.90
4207;DHT22;2117;47.972;7.830;2023-05-14T14:36:06;21.70;99.90
4207;DHT22;2117;47.972;7.830;2023-05-14T14:38:31;22.10;99.90
4207;DHT22;2117;47.972;7.830;2023-05-14T14:40:57;22.10;99.90
4207;DHT22;2117;47.972;7.830;2023-05-14T14:43:23;22.10;99.90
4207;DHT22;2117;47.972;7.830;2023-05-14T14:45:49;22.20;99.90
4207;DHT22;2117;47.972;7.830;2023-05-14T14:48:44;22.60;99.90
4207;DHT22;2117;47.972;7.830;2023-05-14T14:51:10;23.10;99.90
4207;DHT22;2117;47.972;7.830;2023-05-14T14:53:36;23.50;99.90
4207;DHT22;2117;47.972;7.830;2023-05-14T14:56:01;23.70;99.90
4207;DHT22;2117;47.972;7.830;2023-05-14T14:58:27;23.80;99.90
4207;DHT22;2117;47.972;7.830;2023-05-14T15:00:54;24.00;99.90
4207;DHT22;2117;47.972;7.830;2023-05-14T15:03:21;24.30;99.90
4207;DHT22;2117;47.972;7.830;2023-05-14T15:05:47;24.40;99.90
4207;DHT22;2117;47.972;7.830;2023-05-14T15:08:13;24.50;99.90
4207;DHT22;2117;47.972;7.830;2023-05-14T15:10:39;24.70;99.90
4207;DHT22;2117;47.972;7.830;2023-05-14T15:13:06;24.80;99.90
4207;DHT22;2117;47.972;7.830;2023-05-14T15:15:32;24.80;99.90
4207;DHT22;2117;47.972;7.830;2023-05-14T15:17:58;24.90;99.90
4207;DHT22;2117;47.972;7.830;2023-05-14T15:20:24;25.00;99.90
4207;DHT22;2117;47.972;7.830;2023-05-14T15:22:50;25.10;99.90
4207;DHT22;2117;47.972;7.830;2023-05-14T15:25:20;25.20;99.90
4207;DHT22;2117;47.972;7.830;2023-05-14T15:27:46;25.20;99.90
4207;DHT22;2117;47.972;7.830;2023-05-14T15:30:13;25.20;99.90
4207;DHT22;2117;47.972;7.830;2023-05-14T15:32:39;25.10;99.90
4207;DHT22;2117;47.972;7.830;2023-05-14T15:35:05;25.20;99.90
4207;DHT22;2117;47.972;7.830;2023-05-14T15:37:42;25.10;99.90
4207;DHT22;2117;47.972;7.830;2023-05-14T15:42:40;24.20;99.90
4207;DHT22;2117;47.972;7.830;2023-05-14T15:45:10;23.90;99.90
4207;DHT22;2117;47.972;7.830;2023-05-14T15:47:36;23.60;99.90
4207;DHT22;2117;47.972;7.830;2023-05-14T15:52:28;23.30;99.90
4207;DHT22;2117;47.972;7.830;2023-05-14T15:54:54;23.30;99.90
4207;DHT22;2117;47.972;7.830;2023-05-14T15:57:22;23.20;99.90
4207;DHT22;2117;47.972;7.830;2023-05-14T15:59:47;23.00;99.90
4207;DHT22;2117;47.972;7.830;2023-05-14T16:02:14;22.70;99.90
4207;DHT22;2117;47.972;7.830;2023-05-14T16:04:40;22.50;99.90
4207;DHT22;2117;47.972;7.830;2023-05-14T16:07:06;22.30;99.90
4207;DHT22;2117;47.972;7.830;2023-05-14T16:09:36;22.10;99.90
4207;DHT22;2117;47.972;7.830;2023-05-14T16:12:02;21.80;99.90
4207;DHT22;2117;47.972;7.830;2023-05-14T16:14:28;21.60;99.90
4207;DHT22;2117;47.972;7.830;2023-05-14T16:16:54;21.50;99.90
4207;DHT22;2117;47.972;7.830;2023-05-14T16:19:20;21.10;99.90
4207;DHT22;2117;47.972;7.830;2023-05-14T16:21:46;20.90;99.90
4207;DHT22;2117;47.972;7.830;2023-05-14T16:24:11;20.80;99.90
4207;DHT22;2117;47.972;7.830;2023-05-14T16:26:38;20.70;99.90
4207;DHT22;2117;47.972;7.830;2023-05-14T16:29:03;20.50;99.90
4207;DHT22;2117;47.972;7.830;2023-05-14T16:31:29;20.40;99.90
4207;DHT22;2117;47.972;7.830;2023-05-14T16:33:56;20.30;99.90
4207;DHT22;2117;47.972;7.830;2023-05-14T16:36:21;20.10;99.90
4207;DHT22;2117;47.972;7.830;2023-05-14T16:38:47;20.00;99.90
4207;DHT22;2117;47.972;7.830;2023-05-14T16:41:13;19.80;99.90
4207;DHT22;2117;47.972;7.830;2023-05-14T16:43:38;19.70;99.90
4207;DHT22;2117;47.972;7.830;2023-05-14T16:46:04;19.60;99.90
4207;DHT22;2117;47.972;7.830;2023-05-14T16:48:30;19.60;99.90
4207;DHT22;2117;47.972;7.830;2023-05-14T16:50:56;19.50;99.90
4207;DHT22;2117;47.972;7.830;2023-05-14T16:53:23;19.50;99.90
4207;DHT22;2117;47.972;7.830;2023-05-14T16:55:49;19.30;99.90
4207;DHT22;2117;47.972;7.830;2023-05-14T16:58:15;19.30;99.90
4207;DHT22;2117;47.972;7.830;2023-05-14T17:00:40;19.10;99.90
4207;DHT22;2117;47.972;7.830;2023-05-14T17:03:06;19.10;99.90
4207;DHT22;2117;47.972;7.830;2023-05-14T17:05:32;19.00;99.90
4207;DHT22;2117;47.972;7.830;2023-05-14T17:07:58;19.00;99.90
4207;DHT22;2117;47.972;7.830;2023-05-14T17:10:25;18.80;99.90
4207;DHT22;2117;47.972;7.830;2023-05-14T17:12:51;18.80;99.90
4207;DHT22;2117;47.972;7.830;2023-05-14T17:15:16;18.70;99.90
4207;DHT22;2117;47.972;7.830;2023-05-14T17:17:42;18.70;99.90
4207;DHT22;2117;47.972;7.830;2023-05-14T17:20:08;18.50;99.90
4207;DHT22;2117;47.972;7.830;2023-05-14T17:22:34;18.60;99.90
4207;DHT22;2117;47.972;7.830;2023-05-14T17:24:59;18.60;99.90
4207;DHT22;2117;47.972;7.830;2023-05-14T17:27:25;18.50;99.90
4207;DHT22;2117;47.972;7.830;2023-05-14T17:29:53;18.50;99.90
4207;DHT22;2117;47.972;7.830;2023-05-14T17:32:19;18.50;99.90
4207;DHT22;2117;47.972;7.830;2023-05-14T17:34:44;18.50;99.90
4207;DHT22;2117;47.972;7.830;2023-05-14T17:37:10;18.50;99.90
4207;DHT22;2117;47.972;7.830;2023-05-14T17:39:36;18.50;99.90
4207;DHT22;2117;47.972;7.830;2023-05-14T17:42:02;18.50;99.90
4207;DHT22;2117;47.972;7.830;2023-05-14T17:44:28;18.60;99.90
4207;DHT22;2117;47.972;7.830;2023-05-14T17:46:54;18.50;99.90
4207;DHT22;2117;47.972;7.830;2023-05-14T17:49:20;18.50;99.90
4207;DHT22;2117;47.972;7.830;2023-05-14T17:51:45;18.50;99.90
4207;DHT22;2117;47.972;7.830;2023-05-14T17:54:11;18.50;99.90
4207;DHT22;2117;47.972;7.830;2023-05-14T17:56:37;18.50;99.90
4207;DHT22;2117;47.972;7.830;2023-05-14T17:59:02;18.40;99.90
4207;DHT22;2117;47.972;7.830;2023-05-14T18:01:28;18.30;99.90
4207;DHT22;2117;47.972;7.830;2023-05-14T18:03:53;18.20;99.90
4207;DHT22;2117;47.972;7.830;2023-05-14T18:06:19;18.20;99.90
4207;DHT22;2117;47.972;7.830;2023-05-14T18:08:45;18.00;99.90
4207;DHT22;2117;47.972;7.830;2023-05-14T18:11:10;18.00;99.90
4207;DHT22;2117;47.972;7.830;2023-05-14T18:13:36;18.00;99.90
4207;DHT22;2117;47.972;7.830;2023-05-14T18:16:01;17.90;99.90
4207;DHT22;2117;47.972;7.830;2023-05-14T18:18:27;17.80;99.90
4207;DHT22;2117;47.972;7.830;2023-05-14T18:20:52;17.60;99.90
4207;DHT22;2117;47.972;7.830;2023-05-14T18:23:18;17.50;99.90
4207;DHT22;2117;47.972;7.830;2023-05-14T18:25:44;17.40;99.90
4207;DHT22;2117;47.972;7.830;2023-05-14T18:28:10;17.30;99.90
4207;DHT22;2117;47.972;7.830;2023-05-14T18:30:35;17.10;99.90
4207;DHT22;2117;47.972;7.830;2023-05-14T18:33:01;17.10;99.90
4207;DHT22;2117;47.972;7.830;2023-05-14T18:35:26;16.90;99.90
4207;DHT22;2117;47.972;7.830;2023-05-14T18:37:52;16.80;99.90
4207;DHT22;2117;47.972;7.830;2023-05-14T18:40:18;16.70;99.90
4207;DHT22;2117;47.972;7.830;2023-05-14T18:42:44;16.70;99.90
4207;DHT22;2117;47.972;7.830;2023-05-14T18:45:10;16.70;99.90
4207;DHT22;2117;47.972;7.830;2023-05-14T18:47:35;16.60;99.90
4207;DHT22;2117;47.972;7.830;2023-05-14T18:50:01;16.50;99.90
4207;DHT22;2117;47.972;7.830;2023-05-14T18:52:27;16.40;99.90
4207;DHT22;2117;47.972;7.830;2023-05-14T18:54:53;16.50;99.90
4207;DHT22;2117;47.972;7.830;2023-05-14T18:57:19;16.40;99.90
4207;DHT22;2117;47.972;7.830;2023-05-14T18:59:45;16.30;99.90
4207;DHT22;2117;47.972;7.830;2023-05-14T19:02:11;16.10;99.90